sensor_id;sensor_type;location;lat;lon;timestamp;temperature;humidity
20319;DHT22;10317;47.254;11.314;2023-04-03T00:02:17;6.20;99.90
20319;DHT22;10317;47.254;11.314;2023-04-03T00:04:43;6.20;99.90
20319;DHT22;10317;47.254;11.314;2023-04-03T00:07:08;6.10;99.90
20319;DHT22;10317;47.254;11.314;2023-04-03T00:09:34;5.90;99.90
20319;DHT22;10317;47.254;11.314;2023-04-03T00:12:00;5.80;99.90
20319;DHT22;10317;47.254;11.314;2023-04-03T00:14:26;5.80;99.90
20319;DHT22;10317;47.254;11.314;2023-04-03T00:16:52;5.80;99.90
20319;DHT22;10317;47.254;11.314;2023-04-03T00:19:18;5.60;99.90
20319;DHT22;10317;47.254;11.314;2023-04-03T00:21:44;5.60;99.90
20319;DHT22;10317;47.254;11.314;2023-04-03T00:24:10;5.50;99.90
20319;DHT22;10317;47.254;11.314;2023-04-03T00:26:35;5.50;99.90
20319;DHT22;10317;47.254;11.314;2023-04-03T00:29:01;5.50;99.90
20319;DHT22;10317;47.254;11.314;2023-04-03T00:31:26;5.40;99.90
20319;DHT22;10317;47.254;11.314;2023-04-03T00:33:52;5.40;99.90
20319;DHT22;10317;47.254;11.314;2023-04-03T00:36:18;5.30;99.90
20319;DHT22;10317;47.254;11.314;2023-04-03T00:38:43;5.30;99.90
20319;DHT22;10317;47.254;11.314;2023-04-03T00:41:09;5.20;99.90
20319;DHT22;10317;47.254;11.314;2023-04-03T00:43:35;5.20;99.90
20319;DHT22;10317;47.254;11.314;2023-04-03T00:46:00;5.20;99.90
20319;DHT22;10317;47.254;11.314;2023-04-03T00:48:33;5.20;99.90
20319;DHT22;10317;47.254;11.314;2023-04-03T00:51:01;5.10;99.90
20319;DHT22;10317;47.254;11.314;2023-04-03T00:53:33;5.10;99.90
20319;DHT22;10317;47.254;11.314;2023-04-03T00:56:01;5.10;99.90
20319;DHT22;10317;47.254;11.314;2023-04-03T00:58:47;5.00;99.90
20319;DHT22;10317;47.254;11.314;2023-04-03T01:01:17;4.90;99.90
20319;DHT22;10317;47.254;11.314;2023-04-03T01:03:44;4.80;99.90
20319;DHT22;10317;47.254;11.314;2023-04-03T01:06:18;4.80;99.90
20319;DHT22;10317;47.254;11.314;2023-04-03T01:08:48;4.80;99.90
20319;DHT22;10317;47.254;11.314;2023-04-03T01:11:14;4.60;99.90
20319;DHT22;10317;47.254;11.314;2023-04-03T01:13:40;4.60;99.90
20319;DHT22;10317;47.254;11.314;2023-04-03T01:16:07;4.60;99.90
20319;DHT22;10317;47.254;11.314;2023-04-03T01:18:35;4.50;99.90
20319;DHT22;10317;47.254;11.314;2023-04-03T01:26:20;4.50;99.90
20319;DHT22;10317;47.254;11.314;2023-04-03T01:28:46;4.50;99.90
20319;DHT22;10317;47.254;11.314;2023-04-03T01:31:31;4.60;99.90
20319;DHT22;10317;47.254;11.314;2023-04-03T01:33:58;4.60;99.90
20319;DHT22;10317;47.254;11.314;2023-04-03T01:36:27;4.70;99.90
20319;DHT22;10317;47.254;11.314;2023-04-03T01:38:54;4.70;99.90
20319;DHT22;10317;47.254;11.314;2023-04-03T01:41:21;4.70;99.90
20319;DHT22;10317;47.254;11.314;2023-04-03T01:43:47;4.70;99.90
20319;DHT22;10317;47.254;11.314;2023-04-03T01:46:14;4.80;99.90
20319;DHT22;10317;47.254;11.314;2023-04-03T01:48:40;4.80;99.90
20319;DHT22;10317;47.254;11.314;2023-04-03T01:51:06;4.80;99.90
20319;DHT22;10317;47.254;11.314;2023-04-03T01:53:31;4.70;99.90
20319;DHT22;10317;47.254;11.314;2023-04-03T01:55:57;4.70;99.90
20319;DHT22;10317;47.254;11.314;2023-04-03T01:58:23;4.60;99.90
20319;DHT22;10317;47.254;11.314;2023-04-03T02:00:49;4.50;99.90
20319;DHT22;10317;47.254;11.314;2023-04-03T02:03:14;4.50;99.90
20319;DHT22;10317;47.254;11.314;2023-04-03T02:05:40;4.40;99.90
20319;DHT22;10317;47.254;11.314;2023-04-03T02:08:06;4.40;99.90
20319;DHT22;10317;47.254;11.314;2023-04-03T02:10:32;4.40;99.90
20319;DHT22;10317;47.254;11.314;2023-04-03T02:12:57;4.50;99.90
20319;DHT22;10317;47.254;11.314;2023-04-03T02:15:23;4.50;99.90
20319;DHT22;10317;47.254;11.314;2023-04-03T02:17:48;4.40;99.90
20319;DHT22;10317;47.254;11.314;2023-04-03T02:20:14;4.40;99.90
20319;DHT22;10317;47.254;11.314;2023-04-03T02:22:40;4.30;99.90
20319;DHT22;10317;47.254;11.314;2023-04-03T02:25:06;4.30;99.90
20319;DHT22;10317;47.254;11.314;2023-04-03T02:27:32;4.40;99.90
20319;DHT22;10317;47.254;11.314;2023-04-03T02:29:58;4.40;99.90
20319;DHT22;10317;47.254;11.314;2023-04-03T02:32:23;4.40;99.90
20319;DHT22;10317;47.254;11.314;2023-04-03T02:34:49;4.40;99.90
20319;DHT22;10317;47.254;11.314;2023-04-03T02:37:15;4.40;99.90
20319;DHT22;10317;47.254;11.314;2023-04-03T02:39:41;4.40;99.90
20319;DHT22;10317;47.254;11.314;2023-04-03T02:42:06;4.30;99.90
20319;DHT22;10317;47.254;11.314;2023-04-03T02:44:32;4.20;99.90
20319;DHT22;10317;47.254;11.314;2023-04-03T02:46:58;4.10;99.90
20319;DHT22;10317;47.254;11.314;2023-04-03T02:49:24;4.10;99.90
20319;DHT22;10317;47.254;11.314;2023-04-03T02:51:49;4.10;99.90
20319;DHT22;10317;47.254;11.314;2023-04-03T02:54:16;4.10;99.90
20319;DHT22;10317;47.254;11.314;2023-04-03T02:56:42;4.10;99.90
20319;DHT22;10317;47.254;11.314;2023-04-03T02:59:08;4.10;99.90
20319;DHT22;10317;47.254;11.314;2023-04-03T03:01:33;4.10;99.90
20319;DHT22;10317;47.254;11.314;2023-04-03T03:04:00;4.10;99.90
20319;DHT22;10317;47.254;11.314;2023-04-03T03:06:26;4.10;99.90
20319;DHT22;10317;47.254;11.314;2023-04-03T03:08:52;4.10;99.90
20319;DHT22;10317;47.254;11.314;2023-04-03T03:11:18;4.20;99.90
20319;DHT22;10317;47.254;11.314;2023-04-03T03:13:44;4.20;99.90
20319;DHT22;10317;47.254;11.314;2023-04-03T03:16:10;4.10;99.90
20319;DHT22;10317;47.254;11.314;2023-04-03T03:18:35;4.10;99.90
20319;DHT22;10317;47.254;11.314;2023-04-03T03:21:02;4.10;99.90
20319;DHT22;10317;47.254;11.314;2023-04-03T03:23:29;4.10;99.90
20319;DHT22;10317;47.254;11.314;2023-04-03T03:25:57;4.10;99.90
20319;DHT22;10317;47.254;11.314;2023-04-03T03:28:23;4.00;99.90
20319;DHT22;10317;47.254;11.314;2023-04-03T03:30:49;4.00;99.90
20319;DHT22;10317;47.254;11.314;2023-04-03T03:33:15;4.00;99.90
20319;DHT22;10317;47.254;11.314;2023-04-03T03:35:41;4.00;99.90
20319;DHT22;10317;47.254;11.314;2023-04-03T03:38:07;4.00;99.90
20319;DHT22;10317;47.254;11.314;2023-04-03T03:40:32;3.90;99.90
20319;DHT22;10317;47.254;11.314;2023-04-03T03:42:58;4.00;99.90
20319;DHT22;10317;47.254;11.314;2023-04-03T03:45:23;3.90;99.90
20319;DHT22;10317;47.254;11.314;2023-04-03T03:47:50;3.90;99.90
20319;DHT22;10317;47.254;11.314;2023-04-03T03:50:15;3.80;99.90
20319;DHT22;10317;47.254;11.314;2023-04-03T03:52:41;3.80;99.90
20319;DHT22;10317;47.254;11.314;2023-04-03T03:55:08;3.80;99.90
20319;DHT22;10317;47.254;11.314;2023-04-03T03:57:34;3.80;99.90
20319;DHT22;10317;47.254;11.314;2023-04-03T03:59:59;3.80;99.90
20319;DHT22;10317;47.254;11.314;2023-04-03T04:02:25;3.80;99.90
20319;DHT22;10317;47.254;11.314;2023-04-03T04:04:51;3.90;99.90
20319;DHT22;10317;47.254;11.314;2023-04-03T04:07:16;3.90;99.90
20319;DHT22;10317;47.254;11.314;2023-04-03T04:09:42;3.80;99.90
20319;DHT22;10317;47.254;11.314;2023-04-03T04:12:08;3.80;99.90
20319;DHT22;10317;47.254;11.314;2023-04-03T04:14:33;3.80;99.90
20319;DHT22;10317;47.254;11.314;2023-04-03T04:16:59;3.80;99.90
20319;DHT22;10317;47.254;11.314;2023-04-03T04:19:27;3.70;99.90
20319;DHT22;10317;47.254;11.314;2023-04-03T04:21:53;3.60;99.90
20319;DHT22;10317;47.254;11.314;2023-04-03T04:24:19;3.60;99.90
20319;DHT22;10317;47.254;11.314;2023-04-03T04:26:45;3.60;99.90
20319;DHT22;10317;47.254;11.314;2023-04-03T04:29:10;3.50;99.90
20319;DHT22;10317;47.254;11.314;2023-04-03T04:31:36;3.50;99.90
20319;DHT22;10317;47.254;11.314;2023-04-03T04:34:02;3.50;99.90
20319;DHT22;10317;47.254;11.314;2023-04-03T04:36:27;3.40;99.90
20319;DHT22;10317;47.254;11.314;2023-04-03T04:38:53;3.40;99.90
20319;DHT22;10317;47.254;11.314;2023-04-03T04:41:22;3.40;99.90
20319;DHT22;10317;47.254;11.314;2023-04-03T04:43:49;3.40;99.90
20319;DHT22;10317;47.254;11.314;2023-04-03T04:46:14;3.40;99.90
20319;DHT22;10317;47.254;11.314;2023-04-03T04:48:40;3.40;99.90
20319;DHT22;10317;47.254;11.314;2023-04-03T04:51:07;3.40;99.90
20319;DHT22;10317;47.254;11.314;2023-04-03T04:53:32;3.40;99.90
20319;DHT22;10317;47.254;11.314;2023-04-03T04:55:58;3.40;99.90
20319;DHT22;10317;47.254;11.314;2023-04-03T04:58:24;3.40;99.90
20319;DHT22;10317;47.254;11.314;2023-04-03T05:01:02;3.30;99.90
20319;DHT22;10317;47.254;11.314;2023-04-03T05:03:27;3.30;99.90
20319;DHT22;10317;47.254;11.314;2023-04-03T05:05:53;3.40;99.90
20319;DHT22;10317;47.254;11.314;2023-04-03T05:08:19;3.40;99.90
20319;DHT22;10317;47.254;11.314;2023-04-03T05:10:45;3.40;99.90
20319;DHT22;10317;47.254;11.314;2023-04-03T05:13:11;3.40;99.90
20319;DHT22;10317;47.254;11.314;2023-04-03T05:15:37;3.30;99.90
20319;DHT22;10317;47.254;11.314;2023-04-03T05:18:02;3.30;99.90
20319;DHT22;10317;47.254;11.314;2023-04-03T05:20:28;3.20;99.90
20319;DHT22;10317;47.254;11.314;2023-04-03T05:22:54;3.20;99.90
20319;DHT22;10317;47.254;11.314;2023-04-03T05:25:20;3.20;99.90
20319;DHT22;10317;47.254;11.314;2023-04-03T05:27:45;3.20;99.90
20319;DHT22;10317;47.254;11.314;2023-04-03T05:30:11;3.20;99.90
20319;DHT22;10317;47.254;11.314;2023-04-03T05:32:37;3.20;99.90
20319;DHT22;10317;47.254;11.314;2023-04-03T05:35:04;3.20;99.90
20319;DHT22;10317;47.254;11.314;2023-04-03T05:37:29;3.20;99.90
20319;DHT22;10317;47.254;11.314;2023-04-03T05:39:55;3.10;99.90
20319;DHT22;10317;47.254;11.314;2023-04-03T05:42:21;3.20;99.90
20319;DHT22;10317;47.254;11.314;2023-04-03T05:44:46;3.20;99.90
20319;DHT22;10317;47.254;11.314;2023-04-03T05:47:12;3.10;99.90
20319;DHT22;10317;47.254;11.314;2023-04-03T05:49:38;3.10;99.90
20319;DHT22;10317;47.254;11.314;2023-04-03T05:54:44;3.00;99.90
20319;DHT22;10317;47.254;11.314;2023-04-03T05:57:12;3.10;99.90
20319;DHT22;10317;47.254;11.314;2023-04-03T05:59:37;3.20;99.90
20319;DHT22;10317;47.254;11.314;2023-04-03T06:02:03;3.30;99.90
20319;DHT22;10317;47.254;11.314;2023-04-03T06:04:29;3.40;99.90
20319;DHT22;10317;47.254;11.314;2023-04-03T06:06:56;3.40;99.90
20319;DHT22;10317;47.254;11.314;2023-04-03T06:09:25;3.40;99.90
20319;DHT22;10317;47.254;11.314;2023-04-03T06:11:52;3.40;99.90
20319;DHT22;10317;47.254;11.314;2023-04-03T06:14:18;3.40;99.90
20319;DHT22;10317;47.254;11.314;2023-04-03T06:16:43;3.40;99.90
20319;DHT22;10317;47.254;11.314;2023-04-03T06:19:10;3.40;99.90
20319;DHT22;10317;47.254;11.314;2023-04-03T06:21:36;3.20;99.90
20319;DHT22;10317;47.254;11.314;2023-04-03T06:24:03;3.20;99.90
20319;DHT22;10317;47.254;11.314;2023-04-03T06:26:30;3.20;99.90
20319;DHT22;10317;47.254;11.314;2023-04-03T06:28:56;3.20;99.90
20319;DHT22;10317;47.254;11.314;2023-04-03T06:31:22;3.10;99.90
20319;DHT22;10317;47.254;11.314;2023-04-03T06:33:47;3.00;99.90
20319;DHT22;10317;47.254;11.314;2023-04-03T06:36:13;3.10;99.90
20319;DHT22;10317;47.254;11.314;2023-04-03T06:38:39;3.10;99.90
20319;DHT22;10317;47.254;11.314;2023-04-03T06:41:05;3.20;99.90
20319;DHT22;10317;47.254;11.314;2023-04-03T06:43:30;3.30;99.90
20319;DHT22;10317;47.254;11.314;2023-04-03T06:45:57;3.30;99.90
20319;DHT22;10317;47.254;11.314;2023-04-03T06:48:22;3.40;99.90
20319;DHT22;10317;47.254;11.314;2023-04-03T06:50:48;3.50;99.90
20319;DHT22;10317;47.254;11.314;2023-04-03T06:53:14;3.50;99.90
20319;DHT22;10317;47.254;11.314;2023-04-03T06:55:40;3.60;99.90
20319;DHT22;10317;47.254;11.314;2023-04-03T06:58:07;3.50;99.90
20319;DHT22;10317;47.254;11.314;2023-04-03T07:00:33;3.60;99.90
20319;DHT22;10317;47.254;11.314;2023-04-03T07:02:59;3.60;99.90
20319;DHT22;10317;47.254;11.314;2023-04-03T07:05:25;3.60;99.90
20319;DHT22;10317;47.254;11.314;2023-04-03T07:07:52;3.70;99.90
20319;DHT22;10317;47.254;11.314;2023-04-03T07:10:18;3.80;99.90
20319;DHT22;10317;47.254;11.314;2023-04-03T07:12:44;3.70;99.90
20319;DHT22;10317;47.254;11.314;2023-04-03T07:15:10;3.70;99.90
20319;DHT22;10317;47.254;11.314;2023-04-03T07:17:36;3.70;99.90
20319;DHT22;10317;47.254;11.314;2023-04-03T07:20:02;3.80;99.90
20319;DHT22;10317;47.254;11.314;2023-04-03T07:22:29;3.80;99.90
20319;DHT22;10317;47.254;11.314;2023-04-03T07:24:56;3.80;99.90
20319;DHT22;10317;47.254;11.314;2023-04-03T07:27:24;3.90;99.90
20319;DHT22;10317;47.254;11.314;2023-04-03T07:29:50;4.00;99.90
20319;DHT22;10317;47.254;11.314;2023-04-03T07:32:16;4.10;99.90
20319;DHT22;10317;47.254;11.314;2023-04-03T07:34:43;4.20;99.90
20319;DHT22;10317;47.254;11.314;2023-04-03T07:37:09;4.20;99.90
20319;DHT22;10317;47.254;11.314;2023-04-03T07:39:35;4.20;99.90
20319;DHT22;10317;47.254;11.314;2023-04-03T07:42:01;4.30;99.90
20319;DHT22;10317;47.254;11.314;2023-04-03T07:44:27;4.30;99.90
20319;DHT22;10317;47.254;11.314;2023-04-03T07:46:53;4.30;99.90
20319;DHT22;10317;47.254;11.314;2023-04-03T07:49:20;4.40;99.90
20319;DHT22;10317;47.254;11.314;2023-04-03T07:51:48;4.40;99.90
20319;DHT22;10317;47.254;11.314;2023-04-03T07:54:14;4.30;99.90
20319;DHT22;10317;47.254;11.314;2023-04-03T07:56:40;4.40;99.90
20319;DHT22;10317;47.254;11.314;2023-04-03T07:59:08;4.40;99.90
20319;DHT22;10317;47.254;11.314;2023-04-03T08:01:34;4.40;99.90
20319;DHT22;10317;47.254;11.314;2023-04-03T08:04:00;4.50;99.90
20319;DHT22;10317;47.254;11.314;2023-04-03T08:06:26;4.60;99.90
20319;DHT22;10317;47.254;11.314;2023-04-03T08:08:52;4.60;99.90
20319;DHT22;10317;47.254;11.314;2023-04-03T08:11:17;4.70;99.90
20319;DHT22;10317;47.254;11.314;2023-04-03T08:13:45;4.70;99.90
20319;DHT22;10317;47.254;11.314;2023-04-03T08:16:15;4.70;99.90
20319;DHT22;10317;47.254;11.314;2023-04-03T08:18:42;4.60;99.90
20319;DHT22;10317;47.254;11.314;2023-04-03T08:21:11;4.60;99.90
20319;DHT22;10317;47.254;11.314;2023-04-03T08:23:38;4.60;99.90
20319;DHT22;10317;47.254;11.314;2023-04-03T08:26:15;4.50;99.90
20319;DHT22;10317;47.254;11.314;2023-04-03T08:28:41;4.50;99.90
20319;DHT22;10317;47.254;11.314;2023-04-03T08:31:11;4.60;99.90
20319;DHT22;10317;47.254;11.314;2023-04-03T08:33:38;4.70;99.90
20319;DHT22;10317;47.254;11.314;2023-04-03T08:36:05;4.90;99.90
20319;DHT22;10317;47.254;11.314;2023-04-03T08:38:31;5.00;99.90
20319;DHT22;10317;47.254;11.314;2023-04-03T08:41:14;5.20;99.90
20319;DHT22;10317;47.254;11.314;2023-04-03T08:44:04;5.30;99.90
20319;DHT22;10317;47.254;11.314;2023-04-03T08:49:36;5.40;99.90
20319;DHT22;10317;47.254;11.314;2023-04-03T08:52:36;5.60;99.90
20319;DHT22;10317;47.254;11.314;2023-04-03T08:55:30;5.70;99.90
20319;DHT22;10317;47.254;11.314;2023-04-03T08:58:02;6.00;99.90
20319;DHT22;10317;47.254;11.314;2023-04-03T09:00:56;6.20;99.90
20319;DHT22;10317;47.254;11.314;2023-04-03T09:03:22;6.10;99.90
20319;DHT22;10317;47.254;11.314;2023-04-03T09:08:29;6.00;99.90
20319;DHT22;10317;47.254;11.314;2023-04-03T09:11:35;6.20;99.90
20319;DHT22;10317;47.254;11.314;2023-04-03T09:16:57;6.20;99.90
20319;DHT22;10317;47.254;11.314;2023-04-03T09:22:07;6.50;99.90
20319;DHT22;10317;47.254;11.314;2023-04-03T09:24:35;6.70;99.90
20319;DHT22;10317;47.254;11.314;2023-04-03T09:27:05;6.80;99.90
20319;DHT22;10317;47.254;11.314;2023-04-03T09:29:33;7.00;99.90
20319;DHT22;10317;47.254;11.314;2023-04-03T09:32:02;6.70;99.90
20319;DHT22;10317;47.254;11.314;2023-04-03T09:34:38;6.40;99.90
20319;DHT22;10317;47.254;11.314;2023-04-03T09:37:06;6.50;99.90
20319;DHT22;10317;47.254;11.314;2023-04-03T09:39:50;6.50;99.90
20319;DHT22;10317;47.254;11.314;2023-04-03T09:42:22;6.60;99.90
20319;DHT22;10317;47.254;11.314;2023-04-03T09:45:00;6.80;99.90
20319;DHT22;10317;47.254;11.314;2023-04-03T09:47:28;7.00;99.90
20319;DHT22;10317;47.254;11.314;2023-04-03T09:50:24;7.00;99.90
20319;DHT22;10317;47.254;11.314;2023-04-03T09:52:51;6.90;99.90
20319;DHT22;10317;47.254;11.314;2023-04-03T10:00:54;7.40;99.90
20319;DHT22;10317;47.254;11.314;2023-04-03T10:03:32;7.60;99.90
20319;DHT22;10317;47.254;11.314;2023-04-03T10:06:02;7.20;99.90
20319;DHT22;10317;47.254;11.314;2023-04-03T10:08:33;7.40;99.90
20319;DHT22;10317;47.254;11.314;2023-04-03T10:13:50;7.10;99.90
20319;DHT22;10317;47.254;11.314;2023-04-03T10:16:20;7.40;99.90
20319;DHT22;10317;47.254;11.314;2023-04-03T10:22:04;7.60;99.10
20319;DHT22;10317;47.254;11.314;2023-04-03T10:24:52;7.80;98.20
20319;DHT22;10317;47.254;11.314;2023-04-03T10:30:37;7.90;97.50
20319;DHT22;10317;47.254;11.314;2023-04-03T10:36:42;7.30;94.80
20319;DHT22;10317;47.254;11.314;2023-04-03T10:52:52;7.00;95.00
20319;DHT22;10317;47.254;11.314;2023-04-03T10:57:55;7.20;95.50
20319;DHT22;10317;47.254;11.314;2023-04-03T11:03:30;7.40;95.60
20319;DHT22;10317;47.254;11.314;2023-04-03T11:05:55;7.40;92.90
20319;DHT22;10317;47.254;11.314;2023-04-03T11:08:28;7.40;93.80
20319;DHT22;10317;47.254;11.314;2023-04-03T11:11:13;7.30;92.80
20319;DHT22;10317;47.254;11.314;2023-04-03T11:16:21;7.40;93.40
20319;DHT22;10317;47.254;11.314;2023-04-03T11:18:59;7.40;92.10
20319;DHT22;10317;47.254;11.314;2023-04-03T11:21:33;7.10;93.20
20319;DHT22;10317;47.254;11.314;2023-04-03T11:24:03;7.10;95.00
20319;DHT22;10317;47.254;11.314;2023-04-03T11:26:36;7.20;94.70
20319;DHT22;10317;47.254;11.314;2023-04-03T11:29:08;6.80;93.20
20319;DHT22;10317;47.254;11.314;2023-04-03T11:34:38;6.70;94.40
20319;DHT22;10317;47.254;11.314;2023-04-03T11:37:17;6.60;92.90
20319;DHT22;10317;47.254;11.314;2023-04-03T11:39:58;6.40;93.70
20319;DHT22;10317;47.254;11.314;2023-04-03T11:42:38;6.20;94.40
20319;DHT22;10317;47.254;11.314;2023-04-03T12:16:24;6.40;93.60
20319;DHT22;10317;47.254;11.314;2023-04-03T12:21:23;6.60;93.30
20319;DHT22;10317;47.254;11.314;2023-04-03T12:24:25;6.50;92.80
20319;DHT22;10317;47.254;11.314;2023-04-03T12:46:43;7.10;90.00
20319;DHT22;10317;47.254;11.314;2023-04-03T12:49:35;7.10;90.80
20319;DHT22;10317;47.254;11.314;2023-04-03T12:52:05;6.90;89.50
20319;DHT22;10317;47.254;11.314;2023-04-03T12:54:39;6.90;90.70
20319;DHT22;10317;47.254;11.314;2023-04-03T12:57:20;6.70;90.30
20319;DHT22;10317;47.254;11.314;2023-04-03T12:59:46;6.50;90.60
20319;DHT22;10317;47.254;11.314;2023-04-03T13:04:48;6.50;90.40
20319;DHT22;10317;47.254;11.314;2023-04-03T13:07:28;6.50;90.40
20319;DHT22;10317;47.254;11.314;2023-04-03T13:10:19;6.50;90.50
20319;DHT22;10317;47.254;11.314;2023-04-03T13:12:56;6.40;90.80
20319;DHT22;10317;47.254;11.314;2023-04-03T13:17:51;6.50;91.10
20319;DHT22;10317;47.254;11.314;2023-04-03T13:20:31;6.60;90.60
20319;DHT22;10317;47.254;11.314;2023-04-03T13:23:08;6.60;90.10
20319;DHT22;10317;47.254;11.314;2023-04-03T13:25:41;6.40;89.60
20319;DHT22;10317;47.254;11.314;2023-04-03T13:28:14;6.50;90.20
20319;DHT22;10317;47.254;11.314;2023-04-03T13:31:06;6.50;90.60
20319;DHT22;10317;47.254;11.314;2023-04-03T13:33:34;6.40;90.30
20319;DHT22;10317;47.254;11.314;2023-04-03T13:36:08;6.40;89.70
20319;DHT22;10317;47.254;11.314;2023-04-03T13:38:36;6.50;90.10
20319;DHT22;10317;47.254;11.314;2023-04-03T13:41:23;6.60;88.90
20319;DHT22;10317;47.254;11.314;2023-04-03T13:43:49;6.50;90.10
20319;DHT22;10317;47.254;11.314;2023-04-03T13:48:46;6.60;90.00
20319;DHT22;10317;47.254;11.314;2023-04-03T13:53:57;6.50;90.50
20319;DHT22;10317;47.254;11.314;2023-04-03T13:56:30;6.60;90.00
20319;DHT22;10317;47.254;11.314;2023-04-03T13:59:20;6.50;88.80
20319;DHT22;10317;47.254;11.314;2023-04-03T14:01:53;6.50;87.80
20319;DHT22;10317;47.254;11.314;2023-04-03T14:04:23;6.50;88.90
20319;DHT22;10317;47.254;11.314;2023-04-03T14:06:49;6.50;90.50
20319;DHT22;10317;47.254;11.314;2023-04-03T14:09:16;6.40;90.10
20319;DHT22;10317;47.254;11.314;2023-04-03T14:11:42;6.40;90.40
20319;DHT22;10317;47.254;11.314;2023-04-03T14:14:21;6.10;91.80
20319;DHT22;10317;47.254;11.314;2023-04-03T14:16:51;6.00;91.40
20319;DHT22;10317;47.254;11.314;2023-04-03T14:19:25;6.00;91.20
20319;DHT22;10317;47.254;11.314;2023-04-03T14:21:52;6.00;91.80
20319;DHT22;10317;47.254;11.314;2023-04-03T14:24:18;5.90;91.10
20319;DHT22;10317;47.254;11.314;2023-04-03T14:26:45;6.00;92.00
20319;DHT22;10317;47.254;11.314;2023-04-03T14:29:12;5.90;91.00
20319;DHT22;10317;47.254;11.314;2023-04-03T14:31:40;5.80;91.20
20319;DHT22;10317;47.254;11.314;2023-04-03T14:34:06;5.90;93.10
20319;DHT22;10317;47.254;11.314;2023-04-03T14:36:32;6.00;91.40
20319;DHT22;10317;47.254;11.314;2023-04-03T14:38:59;6.00;91.20
20319;DHT22;10317;47.254;11.314;2023-04-03T14:41:25;6.00;92.00
20319;DHT22;10317;47.254;11.314;2023-04-03T14:43:52;6.10;92.00
20319;DHT22;10317;47.254;11.314;2023-04-03T14:46:37;6.20;92.60
20319;DHT22;10317;47.254;11.314;2023-04-03T14:49:09;6.20;90.60
20319;DHT22;10317;47.254;11.314;2023-04-03T14:51:37;6.00;89.00
20319;DHT22;10317;47.254;11.314;2023-04-03T14:54:05;5.90;90.00
20319;DHT22;10317;47.254;11.314;2023-04-03T14:56:31;5.90;89.10
20319;DHT22;10317;47.254;11.314;2023-04-03T14:58:59;6.00;89.50
20319;DHT22;10317;47.254;11.314;2023-04-03T15:01:27;5.90;88.40
20319;DHT22;10317;47.254;11.314;2023-04-03T15:03:53;5.90;89.90
20319;DHT22;10317;47.254;11.314;2023-04-03T15:06:19;5.80;88.40
20319;DHT22;10317;47.254;11.314;2023-04-03T15:08:47;5.90;89.00
20319;DHT22;10317;47.254;11.314;2023-04-03T15:11:14;6.00;89.10
20319;DHT22;10317;47.254;11.314;2023-04-03T15:13:40;5.90;86.50
20319;DHT22;10317;47.254;11.314;2023-04-03T15:16:14;5.90;89.20
20319;DHT22;10317;47.254;11.314;2023-04-03T15:18:40;6.00;89.80
20319;DHT22;10317;47.254;11.314;2023-04-03T15:21:06;6.00;90.00
20319;DHT22;10317;47.254;11.314;2023-04-03T15:23:32;5.80;88.40
20319;DHT22;10317;47.254;11.314;2023-04-03T15:25:58;5.70;90.30
20319;DHT22;10317;47.254;11.314;2023-04-03T15:28:36;5.70;90.80
20319;DHT22;10317;47.254;11.314;2023-04-03T15:31:03;5.70;90.10
20319;DHT22;10317;47.254;11.314;2023-04-03T15:33:30;5.60;89.80
20319;DHT22;10317;47.254;11.314;2023-04-03T15:35:56;5.60;89.30
20319;DHT22;10317;47.254;11.314;2023-04-03T15:38:22;5.60;90.50
20319;DHT22;10317;47.254;11.314;2023-04-03T15:40:48;5.50;90.80
20319;DHT22;10317;47.254;11.314;2023-04-03T15:43:14;5.40;87.90
20319;DHT22;10317;47.254;11.314;2023-04-03T15:45:40;5.40;89.60
20319;DHT22;10317;47.254;11.314;2023-04-03T15:48:08;5.30;89.90
20319;DHT22;10317;47.254;11.314;2023-04-03T15:50:34;5.30;90.10
20319;DHT22;10317;47.254;11.314;2023-04-03T15:53:01;5.30;90.40
20319;DHT22;10317;47.254;11.314;2023-04-03T15:55:29;5.30;90.30
20319;DHT22;10317;47.254;11.314;2023-04-03T15:57:55;5.40;90.70
20319;DHT22;10317;47.254;11.314;2023-04-03T16:00:22;5.40;90.50
20319;DHT22;10317;47.254;11.314;2023-04-03T16:02:50;5.50;91.30
20319;DHT22;10317;47.254;11.314;2023-04-03T16:05:17;5.50;91.50
20319;DHT22;10317;47.254;11.314;2023-04-03T16:07:43;5.50;92.00
20319;DHT22;10317;47.254;11.314;2023-04-03T16:10:10;5.60;92.90
20319;DHT22;10317;47.254;11.314;2023-04-03T16:12:36;5.60;92.30
20319;DHT22;10317;47.254;11.314;2023-04-03T16:15:02;5.50;91.30
20319;DHT22;10317;47.254;11.314;2023-04-03T16:17:28;5.30;91.90
20319;DHT22;10317;47.254;11.314;2023-04-03T16:19:56;5.30;92.90
20319;DHT22;10317;47.254;11.314;2023-04-03T16:22:24;5.20;90.70
20319;DHT22;10317;47.254;11.314;2023-04-03T16:24:50;5.10;91.50
20319;DHT22;10317;47.254;11.314;2023-04-03T16:27:17;5.10;91.50
20319;DHT22;10317;47.254;11.314;2023-04-03T16:29:42;5.10;92.30
20319;DHT22;10317;47.254;11.314;2023-04-03T16:32:08;5.10;92.50
20319;DHT22;10317;47.254;11.314;2023-04-03T16:34:34;5.10;92.40
20319;DHT22;10317;47.254;11.314;2023-04-03T16:37:00;5.00;93.30
20319;DHT22;10317;47.254;11.314;2023-04-03T16:39:26;4.90;92.90
20319;DHT22;10317;47.254;11.314;2023-04-03T16:41:52;4.70;92.60
20319;DHT22;10317;47.254;11.314;2023-04-03T16:44:17;4.70;93.30
20319;DHT22;10317;47.254;11.314;2023-04-03T16:46:44;4.60;93.00
20319;DHT22;10317;47.254;11.314;2023-04-03T16:49:09;4.50;92.60
20319;DHT22;10317;47.254;11.314;2023-04-03T16:51:35;4.40;93.00
20319;DHT22;10317;47.254;11.314;2023-04-03T16:54:01;4.50;93.10
20319;DHT22;10317;47.254;11.314;2023-04-03T16:56:27;4.40;93.40
20319;DHT22;10317;47.254;11.314;2023-04-03T16:58:53;4.40;94.30
20319;DHT22;10317;47.254;11.314;2023-04-03T17:01:20;4.30;94.60
20319;DHT22;10317;47.254;11.314;2023-04-03T17:03:46;4.30;94.40
20319;DHT22;10317;47.254;11.314;2023-04-03T17:06:16;4.30;94.50
20319;DHT22;10317;47.254;11.314;2023-04-03T17:08:47;4.20;93.90
20319;DHT22;10317;47.254;11.314;2023-04-03T17:11:13;4.20;94.20
20319;DHT22;10317;47.254;11.314;2023-04-03T17:13:39;4.20;94.00
20319;DHT22;10317;47.254;11.314;2023-04-03T17:16:08;4.20;94.20
20319;DHT22;10317;47.254;11.314;2023-04-03T17:18:35;4.20;94.00
20319;DHT22;10317;47.254;11.314;2023-04-03T17:21:02;4.10;93.70
20319;DHT22;10317;47.254;11.314;2023-04-03T17:23:28;4.10;93.90
20319;DHT22;10317;47.254;11.314;2023-04-03T17:25:55;4.10;93.70
20319;DHT22;10317;47.254;11.314;2023-04-03T17:28:21;4.00;94.40
20319;DHT22;10317;47.254;11.314;2023-04-03T17:30:55;4.00;94.30
20319;DHT22;10317;47.254;11.314;2023-04-03T17:33:21;4.00;95.00
20319;DHT22;10317;47.254;11.314;2023-04-03T17:35:47;3.80;94.60
20319;DHT22;10317;47.254;11.314;2023-04-03T17:38:13;3.80;95.10
20319;DHT22;10317;47.254;11.314;2023-04-03T17:40:39;3.80;94.90
20319;DHT22;10317;47.254;11.314;2023-04-03T17:43:04;3.80;95.40
20319;DHT22;10317;47.254;11.314;2023-04-03T17:45:30;3.80;96.00